»·PEaware :: N352CX KLAS-KSAN

N352CX :: KLAS-KSAN

FLIGHT INFORMATION

Flight Status: Arrived
Operator: Privately registered:
United States
More flights under this callsign
Pilot: Dan K. (1691)
Aircraft: CANADAIR CL-600 CRJ-100
(CRJ1)
More flights by this aircraft type
Origin: KLAS McCarran Intl
United States
Destination: KSAN San Diego Intl-Lindbergh
United States
More flights between these airports :: More routes between these airports
Route: BOACH5 TNP TNP BARET4
File this flight plan on PilotEdge
Remarks: First IFR flight online, please give directions slowly, thanks!
Altitude:
(Current/Filed)
28,000ft
Speed:
(Current/Filed)
375kts
Departed: 10-Mar-13 01:20 PM
Arrived: 10-Mar-13 02:05 PM
Distance/Time
Traveled:
225nm/0:45
Distance/Time
To Go:
Arrived

Flight Plot

Page will automatically refresh every two minutes.


Map Options




Map Legend


Flown Route
Filed Route
Departure Airport
Arrival Airport
Navaid (VOR, NDB)
Fix

Horizontal Profiles

Position Reports

Time Latitude Longitude Heading Altitude Ground
Speed
10-Mar-13 12:52 36.079534 -115.127109 90 2185ft 0kts
10-Mar-13 12:53 36.079534 -115.127109 90 2185ft 0kts
10-Mar-13 12:54 36.079534 -115.127109 90 2185ft 0kts
10-Mar-13 12:55 36.079534 -115.127109 90 2185ft 0kts
10-Mar-13 12:56 36.079534 -115.127109 90 2185ft 0kts
10-Mar-13 12:57 36.079534 -115.127109 90 2185ft 0kts
10-Mar-13 12:58 36.079534 -115.127109 90 2185ft 0kts
10-Mar-13 12:59 36.079534 -115.127109 90 2185ft 0kts
10-Mar-13 13:00 36.079534 -115.127109 90 2185ft 0kts
10-Mar-13 13:01 36.079534 -115.127109 90 2185ft 0kts
10-Mar-13 13:02 36.079534 -115.127109 90 2185ft 0kts
10-Mar-13 13:03 36.079534 -115.127109 90 2185ft 0kts
10-Mar-13 13:04 36.079534 -115.127109 90 2185ft 0kts
10-Mar-13 13:05 36.078916 -115.126043 176 2185ft 13kts
10-Mar-13 13:06 36.077534 -115.129403 270 2185ft 13kts
10-Mar-13 13:07 36.077522 -115.133975 269 2185ft 13kts
10-Mar-13 13:08 36.077508 -115.138563 268 2185ft 13kts
10-Mar-13 13:09 36.077507 -115.143140 272 2185ft 13kts
10-Mar-13 13:10 36.077793 -115.147707 274 2185ft 13kts
10-Mar-13 13:11 36.078026 -115.152291 269 2185ft 13kts
10-Mar-13 13:12 36.078024 -115.156885 269 2185ft 13kts
10-Mar-13 13:13 36.078010 -115.161480 270 2185ft 13kts
10-Mar-13 13:14 36.077394 -115.163431 203 2185ft 0kts
10-Mar-13 13:15 36.074837 -115.164892 204 2185ft 13kts
10-Mar-13 13:16 36.073960 -115.166349 294 2185ft 0kts
10-Mar-13 13:17 36.073960 -115.166349 294 2185ft 0kts
10-Mar-13 13:18 36.073960 -115.166349 294 2185ft 0kts
10-Mar-13 13:19 36.074060 -115.166612 295 2185ft 5kts
10-Mar-13 13:20 36.089543 -115.158792 25 2373ft 175kts
10-Mar-13 13:21 36.135724 -115.169312 271 5228ft 210kts
10-Mar-13 13:22 36.126440 -115.241710 272 7832ft 221kts
10-Mar-13 13:23 36.116806 -115.319324 225 8065ft 278kts
10-Mar-13 13:24 36.041124 -115.340822 193 8044ft 283kts
10-Mar-13 13:25 35.965494 -115.365914 198 8050ft 281kts
10-Mar-13 13:26 35.890278 -115.377374 161 8588ft 283kts
10-Mar-13 13:27 35.813770 -115.347667 160 10598ft 295kts
10-Mar-13 13:28 35.723728 -115.312574 160 12719ft 381kts
10-Mar-13 13:29 35.617277 -115.298659 180 14742ft 396kts
10-Mar-13 13:30 35.508956 -115.302352 180 16762ft 407kts
10-Mar-13 13:31 35.394221 -115.306440 181 18766ft 421kts
10-Mar-13 13:32 35.275491 -115.310948 182 20757ft 436kts
10-Mar-13 13:33 35.152539 -115.315924 182 22748ft 457kts
10-Mar-13 13:34 35.024148 -115.321401 176 24741ft 465kts
10-Mar-13 13:35 34.891957 -115.325976 178 26746ft 487kts
10-Mar-13 13:36 34.755741 -115.344597 197 28325ft 507kts
10-Mar-13 13:37 34.624377 -115.399971 200 28385ft 489kts
10-Mar-13 13:38 34.500160 -115.453989 201 28451ft 470kts
10-Mar-13 13:39 34.378154 -115.506984 201 28448ft 468kts
10-Mar-13 13:40 34.271795 -115.593162 223 28449ft 468kts
10-Mar-13 13:41 34.175309 -115.699477 223 28449ft 472kts
10-Mar-13 13:42 34.065200 -115.779924 196 27900ft 471kts
10-Mar-13 13:43 33.940984 -115.818971 195 26897ft 456kts
10-Mar-13 13:44 33.819325 -115.855135 195 25890ft 449kts
10-Mar-13 13:45 33.698884 -115.890387 195 24886ft 443kts
10-Mar-13 13:46 33.580907 -115.924692 195 24312ft 433kts
10-Mar-13 13:47 33.486163 -116.002387 234 24249ft 426kts
10-Mar-13 13:48 33.418113 -116.112225 236 22358ft 419kts
10-Mar-13 13:49 33.352931 -116.224521 237 20357ft 406kts
10-Mar-13 13:50 33.289573 -116.332843 237 18345ft 389kts
10-Mar-13 13:51 33.203509 -116.406402 207 16340ft 387kts
10-Mar-13 13:52 33.108538 -116.460652 204 14346ft 369kts
10-Mar-13 13:53 33.018600 -116.510471 205 12339ft 354kts
10-Mar-13 13:54 32.931043 -116.558753 205 11852ft 327kts
10-Mar-13 13:55 32.854675 -116.600781 205 10307ft 283kts
10-Mar-13 13:56 32.792565 -116.650466 234 9041ft 271kts
10-Mar-13 13:57 32.753116 -116.727515 241 8632ft 272kts
10-Mar-13 13:58 32.718725 -116.802339 241 7104ft 247kts
10-Mar-13 13:59 32.687156 -116.872087 245 6013ft 238kts
10-Mar-13 14:00 32.675775 -116.949773 263 4945ft 235kts
10-Mar-13 14:01 32.689854 -117.022623 292 4008ft 228kts
10-Mar-13 14:01 32.705996 -117.082214 287 3304ft 227kts
10-Mar-13 14:03 32.722200 -117.143637 284 1434ft 139kts
10-Mar-13 14:03 32.730601 -117.177515 279 107ft 123kts
10-Mar-13 14:05 32.733161 -117.192425 285 21ft 13kts
10-Mar-13 14:05 32.732632 -117.194796 222 21ft 5kts
10-Mar-13 14:06 32.732545 -117.195663 291 21ft 0kts
10-Mar-13 14:07 32.732545 -117.195663 291 21ft 0kts
10-Mar-13 14:08 32.732545 -117.195663 291 21ft 0kts
10-Mar-13 14:09 32.732545 -117.195663 291 21ft 0kts
10-Mar-13 14:10 32.732545 -117.195663 291 21ft 0kts
10-Mar-13 14:11 32.732545 -117.195663 291 21ft 0kts
10-Mar-13 14:12 32.732545 -117.195663 291 21ft 0kts
10-Mar-13 14:13 32.732545 -117.195663 291 21ft 0kts
10-Mar-13 14:14 32.732545 -117.195663 291 21ft 0kts
10-Mar-13 14:15 32.732545 -117.195663 291 21ft 0kts
10-Mar-13 14:16 32.732545 -117.195663 291 21ft 0kts
10-Mar-13 14:17 32.732545 -117.195663 291 21ft 0kts

Navigation Log

Ident Type
Flight plan parsing failed, navigation log unavailable